Time;durP1;ratioP1;P1;durP2;ratioP2;P2;SDS_P1;SDS_P2;PMS_P1;PMS_P2;Temp;Humidity;BMP_temperature;BMP_pressure;BME280_temperature;BME280_humidity;BME280_pressure;Samples;Min_cycle;Max_cycle;Signal;HPM_P1;HPM_P2
2023/01/28 00:00:35;;;;;;;5.00;2.97;;;;;;;;;;5093304;28;20047;-70
2023/01/28 00:03:01;;;;;;;4.90;3.40;;;;;;;;;;5096374;28;20070;-70
2023/01/28 00:05:28;;;;;;;5.25;3.25;;;;;;;;;;5092033;27;20523;-70
2023/01/28 00:07:56;;;;;;;4.40;3.33;;;;;;;;;;5098404;28;20114;-70
2023/01/28 00:10:22;;;;;;;4.28;3.15;;;;;;;;;;5099552;28;20043;-70
2023/01/28 00:12:49;;;;;;;5.30;3.17;;;;;;;;;;5100700;28;20039;-70
2023/01/28 00:15:16;;;;;;;4.55;2.83;;;;;;;;;;5093688;28;20141;-70
2023/01/28 00:17:42;;;;;;;4.57;2.92;;;;;;;;;;5099936;27;20042;-70
2023/01/28 00:20:08;;;;;;;3.88;2.75;;;;;;;;;;5097541;28;20252;-71
2023/01/28 00:22:34;;;;;;;4.60;2.58;;;;;;;;;;5098716;28;20039;-70
2023/01/28 00:25:01;;;;;;;5.45;2.97;;;;;;;;;;5096950;28;20551;-70
2023/01/28 00:27:27;;;;;;;3.80;2.65;;;;;;;;;;5098794;28;20057;-70
2023/01/28 00:29:54;;;;;;;5.13;2.92;;;;;;;;;;5100253;28;20051;-70
2023/01/28 00:32:20;;;;;;;4.05;2.83;;;;;;;;;;5093066;28;20399;-70
2023/01/28 00:34:48;;;;;;;4.25;3.20;;;;;;;;;;5093601;28;20040;-70
2023/01/28 00:37:15;;;;;;;5.25;3.53;;;;;;;;;;5098737;28;20048;-70
2023/01/28 00:39:41;;;;;;;4.68;3.40;;;;;;;;;;5097880;28;20036;-71
2023/01/28 00:42:07;;;;;;;5.68;3.97;;;;;;;;;;5096554;28;20626;-71
2023/01/28 00:44:33;;;;;;;5.15;3.28;;;;;;;;;;5096980;28;20063;-71
2023/01/28 00:46:59;;;;;;;5.53;3.55;;;;;;;;;;5095823;28;20737;-70
2023/01/28 00:49:26;;;;;;;5.10;3.67;;;;;;;;;;5092443;28;20888;-71
2023/01/28 00:51:52;;;;;;;5.65;3.50;;;;;;;;;;5102556;28;20074;-71
2023/01/28 00:54:18;;;;;;;7.50;3.88;;;;;;;;;;5089456;28;20142;-71
2023/01/28 00:56:44;;;;;;;4.90;3.33;;;;;;;;;;5095902;28;20348;-71
2023/01/28 00:59:11;;;;;;;5.03;3.45;;;;;;;;;;5089427;28;20407;-71
2023/01/28 01:01:37;;;;;;;4.20;3.38;;;;;;;;;;5098141;28;20424;-71
2023/01/28 01:04:03;;;;;;;4.80;3.47;;;;;;;;;;5090959;28;20515;-70
2023/01/28 01:06:31;;;;;;;5.80;3.72;;;;;;;;;;5089271;28;20403;-71
2023/01/28 01:08:57;;;;;;;6.65;3.38;;;;;;;;;;5088760;28;20035;-71
2023/01/28 01:11:24;;;;;;;5.40;3.47;;;;;;;;;;5097244;28;20040;-71
2023/01/28 01:13:53;;;;;;;5.28;4.18;;;;;;;;;;5097577;28;20471;-71
2023/01/28 01:16:20;;;;;;;5.88;4.38;;;;;;;;;;5095772;28;20044;-71
2023/01/28 01:18:46;;;;;;;6.90;4.25;;;;;;;;;;5089839;28;20363;-71
2023/01/28 01:21:14;;;;;;;4.97;3.80;;;;;;;;;;5078161;28;20040;-71
2023/01/28 01:23:40;;;;;;;8.15;3.97;;;;;;;;;;5096507;28;20442;-70
2023/01/28 01:26:07;;;;;;;4.95;3.47;;;;;;;;;;5096027;28;20101;-71
2023/01/28 01:28:33;;;;;;;5.55;3.97;;;;;;;;;;5095924;28;20047;-71
2023/01/28 01:31:00;;;;;;;6.07;4.13;;;;;;;;;;5097256;28;21275;-71
2023/01/28 01:33:28;;;;;;;4.97;3.45;;;;;;;;;;5091109;28;20046;-71
2023/01/28 01:35:54;;;;;;;5.95;3.33;;;;;;;;;;5092285;28;20523;-71
2023/01/28 01:38:20;;;;;;;5.25;3.38;;;;;;;;;;5090906;28;20109;-71
2023/01/28 01:40:46;;;;;;;5.05;3.67;;;;;;;;;;5095920;28;20047;-71
2023/01/28 01:43:15;;;;;;;4.80;3.30;;;;;;;;;;5095597;28;20478;-71
2023/01/28 01:45:42;;;;;;;7.00;3.97;;;;;;;;;;5104351;28;20040;-71
2023/01/28 01:48:15;;;;;;;7.15;3.85;;;;;;;;;;5098599;28;20137;-71
2023/01/28 01:50:53;;;;;;;5.00;3.17;;;;;;;;;;5095541;28;20088;-71
2023/01/28 01:53:21;;;;;;;5.47;3.55;;;;;;;;;;5091948;28;20051;-71
2023/01/28 01:55:49;;;;;;;7.32;3.90;;;;;;;;;;5091991;28;20052;-71
2023/01/28 01:58:18;;;;;;;4.63;3.15;;;;;;;;;;5095228;28;20376;-71
2023/01/28 02:00:44;;;;;;;5.90;3.10;;;;;;;;;;5087737;28;20047;-71
2023/01/28 02:03:11;;;;;;;6.00;3.67;;;;;;;;;;5095710;28;20051;-71
2023/01/28 02:05:37;;;;;;;6.03;3.00;;;;;;;;;;5089350;28;20051;-71
2023/01/28 02:08:20;;;;;;;7.35;3.40;;;;;;;;;;5098514;28;20552;-71
2023/01/28 02:10:48;;;;;;;5.57;3.22;;;;;;;;;;5095381;28;20040;-71
2023/01/28 02:13:16;;;;;;;6.05;3.60;;;;;;;;;;5096052;28;20054;-71
2023/01/28 02:15:42;;;;;;;5.63;3.35;;;;;;;;;;5095508;28;20130;-71
2023/01/28 02:18:08;;;;;;;6.35;3.80;;;;;;;;;;5089373;28;20089;-71
2023/01/28 02:20:44;;;;;;;6.18;3.85;;;;;;;;;;5095923;28;20093;-71
2023/01/28 02:23:11;;;;;;;7.18;4.50;;;;;;;;;;5096040;28;20071;-71
2023/01/28 02:25:48;;;;;;;5.43;3.88;;;;;;;;;;5095097;28;20087;-71
2023/01/28 02:28:24;;;;;;;5.82;3.60;;;;;;;;;;5092519;28;20036;-71
2023/01/28 02:31:01;;;;;;;6.18;4.30;;;;;;;;;;5099100;28;20044;-71
2023/01/28 02:33:35;;;;;;;7.05;4.13;;;;;;;;;;5100674;28;20051;-71
2023/01/28 02:36:06;;;;;;;7.85;4.00;;;;;;;;;;5100118;28;20074;-71
2023/01/28 02:38:35;;;;;;;7.03;3.88;;;;;;;;;;5094850;28;20091;-71
2023/01/28 02:41:05;;;;;;;6.57;4.53;;;;;;;;;;5100416;28;20065;-71
2023/01/28 02:43:37;;;;;;;5.18;3.50;;;;;;;;;;5100167;28;20035;-71
2023/01/28 02:49:02;;;;;;;4.70;3.40;;;;;;;;;;5094251;28;20060;-71
2023/01/28 02:51:28;;;;;;;5.35;3.55;;;;;;;;;;5103829;28;20039;-72
2023/01/28 02:54:07;;;;;;;7.90;3.63;;;;;;;;;;5100883;28;20048;-72
2023/01/28 02:56:38;;;;;;;5.75;3.95;;;;;;;;;;5100881;28;20077;-71
2023/01/28 02:59:32;;;;;;;5.70;3.60;;;;;;;;;;5100585;28;20401;-71
2023/01/28 03:02:01;;;;;;;6.45;3.55;;;;;;;;;;5101037;28;20036;-71
2023/01/28 03:04:31;;;;;;;5.22;3.38;;;;;;;;;;5100458;27;20072;-71
2023/01/28 03:07:03;;;;;;;7.03;3.42;;;;;;;;;;5095832;28;20056;-71
2023/01/28 03:09:29;;;;;;;12.00;3.60;;;;;;;;;;5101511;28;20032;-71
2023/01/28 03:37:17;;;;;;;5.93;3.60;;;;;;;;;;5098956;28;20040;-71
2023/01/28 03:39:43;;;;;;;5.93;3.58;;;;;;;;;;5100645;28;20047;-71
2023/01/28 03:42:11;;;;;;;6.30;4.22;;;;;;;;;;5099463;28;20046;-71
2023/01/28 03:44:50;;;;;;;4.82;3.45;;;;;;;;;;5090641;28;20052;-71
2023/01/28 03:47:17;;;;;;;7.20;4.13;;;;;;;;;;5100242;27;20155;-71
2023/01/28 03:49:45;;;;;;;5.57;3.90;;;;;;;;;;5116926;27;20078;-71
2023/01/28 03:52:12;;;;;;;6.07;3.95;;;;;;;;;;5102131;27;20040;-71
2023/01/28 03:54:38;;;;;;;6.50;3.63;;;;;;;;;;5101400;28;20047;-71
2023/01/28 03:57:05;;;;;;;6.65;3.90;;;;;;;;;;5091958;28;20047;-71
2023/01/28 03:59:32;;;;;;;7.43;4.32;;;;;;;;;;5100580;28;20136;-71
2023/01/28 04:01:58;;;;;;;5.43;3.90;;;;;;;;;;5098326;28;20066;-71
2023/01/28 04:04:24;;;;;;;7.18;4.68;;;;;;;;;;5100840;28;20093;-71
2023/01/28 04:06:51;;;;;;;7.13;4.35;;;;;;;;;;5100479;28;20100;-71
2023/01/28 04:09:17;;;;;;;7.50;4.97;;;;;;;;;;5096980;28;20050;-71
2023/01/28 04:11:43;;;;;;;6.53;4.75;;;;;;;;;;5097953;28;20051;-71
2023/01/28 04:14:10;;;;;;;5.93;3.88;;;;;;;;;;5097294;28;20036;-71
2023/01/28 04:16:36;;;;;;;6.00;4.47;;;;;;;;;;5098894;28;20046;-71
2023/01/28 04:19:02;;;;;;;7.95;4.70;;;;;;;;;;5091766;28;20040;-71
2023/01/28 04:21:28;;;;;;;6.60;4.43;;;;;;;;;;5093084;28;20051;-71
2023/01/28 04:23:54;;;;;;;7.75;4.93;;;;;;;;;;5098555;28;20105;-71
2023/01/28 04:26:20;;;;;;;10.80;4.70;;;;;;;;;;5098433;28;20040;-71
2023/01/28 04:28:46;;;;;;;6.90;4.50;;;;;;;;;;5091282;28;20056;-71
2023/01/28 04:31:13;;;;;;;7.28;4.88;;;;;;;;;;5091756;28;20151;-71
2023/01/28 04:33:39;;;;;;;7.35;4.82;;;;;;;;;;5096926;28;20044;-71
2023/01/28 04:36:05;;;;;;;7.60;4.40;;;;;;;;;;5099356;28;20051;-71
2023/01/28 04:38:31;;;;;;;6.43;4.53;;;;;;;;;;5096167;28;20123;-71
2023/01/28 04:40:57;;;;;;;7.20;4.50;;;;;;;;;;5093311;28;20054;-71
2023/01/28 04:43:23;;;;;;;8.18;4.60;;;;;;;;;;5098100;28;20039;-71
2023/01/28 04:45:49;;;;;;;9.25;5.05;;;;;;;;;;5097855;28;20369;-71
2023/01/28 04:48:16;;;;;;;7.65;4.97;;;;;;;;;;5097920;28;20042;-71
2023/01/28 04:50:43;;;;;;;6.25;4.22;;;;;;;;;;5094504;28;20126;-72
2023/01/28 04:53:09;;;;;;;7.57;4.93;;;;;;;;;;5097433;28;20509;-71
2023/01/28 04:55:36;;;;;;;7.32;4.65;;;;;;;;;;5097006;28;20120;-71
2023/01/28 04:58:02;;;;;;;7.80;5.05;;;;;;;;;;5098298;28;20123;-71
2023/01/28 05:00:28;;;;;;;7.60;5.07;;;;;;;;;;5095997;28;20056;-71
2023/01/28 05:02:54;;;;;;;8.20;5.57;;;;;;;;;;5098255;28;20454;-71
2023/01/28 05:05:20;;;;;;;7.63;4.90;;;;;;;;;;5096136;28;20382;-71
2023/01/28 05:07:54;;;;;;;7.22;4.95;;;;;;;;;;5094718;28;20135;-71
2023/01/28 05:10:20;;;;;;;9.17;5.53;;;;;;;;;;5094923;28;20047;-71
2023/01/28 05:12:47;;;;;;;10.82;5.40;;;;;;;;;;5100301;28;20160;-71
2023/01/28 05:15:14;;;;;;;8.50;5.85;;;;;;;;;;5096855;28;20118;-72
2023/01/28 05:17:41;;;;;;;8.05;5.60;;;;;;;;;;5094655;28;20051;-71
2023/01/28 05:20:08;;;;;;;8.43;5.65;;;;;;;;;;5088716;28;20402;-71
2023/01/28 05:22:34;;;;;;;9.23;6.57;;;;;;;;;;5089834;28;20090;-71
2023/01/28 05:25:02;;;;;;;8.48;6.13;;;;;;;;;;5095062;28;20050;-71
2023/01/28 05:27:28;;;;;;;7.88;5.57;;;;;;;;;;5094266;28;20057;-71
2023/01/28 05:29:55;;;;;;;9.15;6.05;;;;;;;;;;5095326;28;20101;-71
2023/01/28 05:32:21;;;;;;;8.13;6.07;;;;;;;;;;5096367;28;20051;-71
2023/01/28 05:34:47;;;;;;;7.88;5.53;;;;;;;;;;5091088;28;20070;-71
2023/01/28 05:37:13;;;;;;;7.65;5.30;;;;;;;;;;5092649;28;20087;-71
2023/01/28 05:39:39;;;;;;;7.50;5.55;;;;;;;;;;5098404;28;20050;-72
2023/01/28 05:42:05;;;;;;;9.50;6.43;;;;;;;;;;5093763;28;20565;-71
2023/01/28 05:44:31;;;;;;;10.50;6.78;;;;;;;;;;5094649;28;20513;-71
2023/01/28 05:46:58;;;;;;;9.52;6.68;;;;;;;;;;5095380;28;20043;-71
2023/01/28 05:49:25;;;;;;;8.38;6.18;;;;;;;;;;5101313;28;20039;-71
2023/01/28 05:51:51;;;;;;;10.18;6.63;;;;;;;;;;5101374;28;20387;-71
2023/01/28 05:54:17;;;;;;;8.95;6.25;;;;;;;;;;5096328;28;20514;-71
2023/01/28 05:56:46;;;;;;;11.18;6.32;;;;;;;;;;5095514;28;20039;-71
2023/01/28 05:59:12;;;;;;;8.65;5.55;;;;;;;;;;5095589;28;20047;-71
2023/01/28 06:01:38;;;;;;;8.25;6.10;;;;;;;;;;5097148;28;20047;-71
2023/01/28 06:04:04;;;;;;;10.57;5.93;;;;;;;;;;5093157;28;20052;-71
2023/01/28 06:06:31;;;;;;;9.75;5.88;;;;;;;;;;5092189;28;20078;-72
2023/01/28 06:08:57;;;;;;;9.90;5.78;;;;;;;;;;5097073;28;20394;-71
2023/01/28 06:11:23;;;;;;;8.40;6.40;;;;;;;;;;5092826;28;20073;-71
2023/01/28 06:13:49;;;;;;;8.70;6.35;;;;;;;;;;5093911;28;20073;-71
2023/01/28 06:16:15;;;;;;;9.20;6.50;;;;;;;;;;5090800;28;20063;-71
2023/01/28 06:18:41;;;;;;;8.70;6.53;;;;;;;;;;5096605;28;20040;-71
2023/01/28 06:21:08;;;;;;;12.45;6.70;;;;;;;;;;5090642;28;20105;-71
2023/01/28 06:23:34;;;;;;;9.02;6.30;;;;;;;;;;5096817;28;20163;-71
2023/01/28 06:26:00;;;;;;;10.00;7.10;;;;;;;;;;5094741;28;20039;-71
2023/01/28 06:28:26;;;;;;;9.50;6.65;;;;;;;;;;5100882;28;20032;-71
2023/01/28 06:30:52;;;;;;;12.57;6.82;;;;;;;;;;5096549;28;20044;-71
2023/01/28 06:33:19;;;;;;;9.07;6.47;;;;;;;;;;5093959;28;20036;-71
2023/01/28 06:35:46;;;;;;;10.18;6.80;;;;;;;;;;5088700;28;20054;-71
2023/01/28 06:38:12;;;;;;;10.18;6.75;;;;;;;;;;5104472;28;20058;-71
2023/01/28 06:40:39;;;;;;;11.93;7.47;;;;;;;;;;5098030;28;20081;-71
2023/01/28 06:43:05;;;;;;;11.88;7.38;;;;;;;;;;5098279;28;20039;-71
2023/01/28 06:45:32;;;;;;;10.65;6.75;;;;;;;;;;5094425;28;20035;-71
2023/01/28 06:47:58;;;;;;;10.95;7.20;;;;;;;;;;5097898;28;20651;-71
2023/01/28 06:50:25;;;;;;;9.75;6.90;;;;;;;;;;5095679;28;20138;-69
2023/01/28 06:52:51;;;;;;;10.13;7.00;;;;;;;;;;5100087;28;20043;-70
2023/01/28 06:55:17;;;;;;;13.80;7.03;;;;;;;;;;5099104;28;20040;-69
2023/01/28 06:57:44;;;;;;;12.10;7.13;;;;;;;;;;5100699;28;20035;-69
2023/01/28 07:00:12;;;;;;;10.40;6.93;;;;;;;;;;5100258;28;20199;-69
2023/01/28 07:02:38;;;;;;;9.10;6.80;;;;;;;;;;5098787;28;20500;-70
2023/01/28 07:05:05;;;;;;;8.88;6.55;;;;;;;;;;5097431;28;20512;-69
2023/01/28 07:07:31;;;;;;;11.35;7.80;;;;;;;;;;5098272;28;20097;-69
2023/01/28 07:09:57;;;;;;;10.57;7.07;;;;;;;;;;5101108;28;20159;-70
2023/01/28 07:12:24;;;;;;;9.63;7.15;;;;;;;;;;5098356;28;20044;-69
2023/01/28 07:14:50;;;;;;;9.77;7.15;;;;;;;;;;5090484;27;20402;-69
2023/01/28 07:17:16;;;;;;;11.02;8.23;;;;;;;;;;5101015;28;20047;-70
2023/01/28 07:19:42;;;;;;;13.25;7.88;;;;;;;;;;5102973;28;20035;-71
2023/01/28 07:22:08;;;;;;;11.80;8.38;;;;;;;;;;5097503;27;20065;-72
2023/01/28 07:24:35;;;;;;;14.25;8.68;;;;;;;;;;5106279;28;20755;-72
2023/01/28 07:27:01;;;;;;;10.65;8.02;;;;;;;;;;5105681;28;20138;-72
2023/01/28 07:29:27;;;;;;;11.88;7.80;;;;;;;;;;5100572;28;20043;-72
2023/01/28 07:31:53;;;;;;;11.48;8.15;;;;;;;;;;5105966;28;20122;-71
2023/01/28 07:34:19;;;;;;;12.23;8.63;;;;;;;;;;5099313;28;20048;-71
2023/01/28 07:36:45;;;;;;;12.13;7.45;;;;;;;;;;5104999;28;20036;-71
2023/01/28 07:39:11;;;;;;;11.07;7.32;;;;;;;;;;5106789;28;20066;-71
2023/01/28 07:41:38;;;;;;;12.27;7.70;;;;;;;;;;5105624;28;20035;-71
2023/01/28 07:44:04;;;;;;;12.32;8.50;;;;;;;;;;5101430;28;21396;-71
2023/01/28 07:46:30;;;;;;;13.43;9.30;;;;;;;;;;5105164;28;20070;-72
2023/01/28 07:48:56;;;;;;;12.82;8.57;;;;;;;;;;5103484;28;20484;-72
2023/01/28 07:51:22;;;;;;;13.95;9.13;;;;;;;;;;5105039;27;20031;-72
2023/01/28 07:53:49;;;;;;;14.48;8.75;;;;;;;;;;5099380;28;20055;-71
2023/01/28 07:56:15;;;;;;;17.70;9.48;;;;;;;;;;5098698;28;20131;-71
2023/01/28 07:58:41;;;;;;;16.00;9.88;;;;;;;;;;5105857;28;20040;-71
2023/01/28 08:01:07;;;;;;;16.50;10.35;;;;;;;;;;5103979;27;20056;-71
2023/01/28 08:03:33;;;;;;;16.05;10.52;;;;;;;;;;5103925;28;20195;-71
2023/01/28 08:05:59;;;;;;;15.80;10.68;;;;;;;;;;5102603;27;20066;-71
2023/01/28 08:08:26;;;;;;;16.02;10.48;;;;;;;;;;5104573;27;20462;-71
2023/01/28 08:10:52;;;;;;;15.27;10.10;;;;;;;;;;5103344;28;20056;-72
2023/01/28 08:13:19;;;;;;;14.30;9.68;;;;;;;;;;5104072;28;20398;-71
2023/01/28 08:15:45;;;;;;;15.98;10.20;;;;;;;;;;5102519;27;20043;-69
2023/01/28 08:18:12;;;;;;;16.42;11.02;;;;;;;;;;5104022;28;20040;-69
2023/01/28 08:20:39;;;;;;;18.35;10.73;;;;;;;;;;5103758;28;21464;-70
2023/01/28 08:23:06;;;;;;;16.85;11.55;;;;;;;;;;5102743;28;20043;-69
2023/01/28 08:25:33;;;;;;;19.33;12.10;;;;;;;;;;5104374;27;21271;-69
2023/01/28 08:28:00;;;;;;;17.20;11.55;;;;;;;;;;5104257;28;20131;-69
2023/01/28 08:30:26;;;;;;;17.02;11.70;;;;;;;;;;5105006;28;20081;-71
2023/01/28 08:32:55;;;;;;;16.38;10.60;;;;;;;;;;5105174;28;20486;-72
2023/01/28 08:35:21;;;;;;;14.32;10.23;;;;;;;;;;5104011;28;20110;-70
2023/01/28 08:37:47;;;;;;;16.25;11.05;;;;;;;;;;5096998;28;20047;-76
2023/01/28 08:40:13;;;;;;;18.83;11.02;;;;;;;;;;5081945;27;20139;-71
2023/01/28 08:42:40;;;;;;;18.27;11.40;;;;;;;;;;5096681;28;20047;-71
2023/01/28 08:45:06;;;;;;;15.63;10.98;;;;;;;;;;5102069;28;21394;-72
2023/01/28 08:47:32;;;;;;;15.00;10.88;;;;;;;;;;5103693;28;20051;-71
2023/01/28 08:49:59;;;;;;;14.30;10.00;;;;;;;;;;5106482;28;20043;-71
2023/01/28 08:52:25;;;;;;;16.58;11.57;;;;;;;;;;5096738;28;20039;-72
2023/01/28 08:54:51;;;;;;;15.65;11.02;;;;;;;;;;5105295;28;20181;-72
2023/01/28 08:57:17;;;;;;;16.92;10.90;;;;;;;;;;5105489;28;20051;-72
2023/01/28 08:59:45;;;;;;;14.95;10.85;;;;;;;;;;5105780;27;20157;-72
2023/01/28 09:02:13;;;;;;;15.68;10.85;;;;;;;;;;5104365;28;20122;-72
2023/01/28 09:04:41;;;;;;;16.17;11.05;;;;;;;;;;5105069;27;20051;-71
2023/01/28 09:07:07;;;;;;;17.85;10.73;;;;;;;;;;5094397;28;20131;-71
2023/01/28 09:09:33;;;;;;;17.70;11.73;;;;;;;;;;5085366;28;20043;-72
2023/01/28 09:11:59;;;;;;;16.80;10.38;;;;;;;;;;5103955;28;20043;-71
2023/01/28 09:14:25;;;;;;;15.73;11.32;;;;;;;;;;5101915;28;20375;-72
2023/01/28 09:16:51;;;;;;;16.08;11.50;;;;;;;;;;5098383;28;20035;-71
2023/01/28 09:19:17;;;;;;;18.42;11.32;;;;;;;;;;5098878;28;20036;-72
2023/01/28 09:21:44;;;;;;;18.45;10.75;;;;;;;;;;5104716;28;20173;-71
2023/01/28 09:24:11;;;;;;;17.30;11.43;;;;;;;;;;5106101;28;20035;-71
2023/01/28 09:26:37;;;;;;;15.30;11.15;;;;;;;;;;5106379;28;20521;-71
2023/01/28 09:29:03;;;;;;;16.02;10.27;;;;;;;;;;5103843;28;20117;-71
2023/01/28 09:31:29;;;;;;;16.40;12.05;;;;;;;;;;5105480;28;20053;-71
2023/01/28 09:33:56;;;;;;;17.63;11.65;;;;;;;;;;5105469;28;20043;-71
2023/01/28 09:36:22;;;;;;;19.08;10.82;;;;;;;;;;5105089;28;20040;-71
2023/01/28 09:38:48;;;;;;;16.85;10.27;;;;;;;;;;5104717;28;20047;-68
2023/01/28 09:41:23;;;;;;;15.13;10.15;;;;;;;;;;5102866;28;20039;-71
2023/01/28 09:43:55;;;;;;;14.20;9.32;;;;;;;;;;5096234;28;20054;-72
2023/01/28 09:46:26;;;;;;;13.82;9.45;;;;;;;;;;5096950;28;20085;-71
2023/01/28 09:48:53;;;;;;;13.25;9.45;;;;;;;;;;5100988;28;20040;-71
2023/01/28 09:51:27;;;;;;;14.38;9.75;;;;;;;;;;5107913;28;20135;-71
2023/01/28 09:53:55;;;;;;;13.75;10.18;;;;;;;;;;5107395;28;20043;-71
2023/01/28 09:56:25;;;;;;;14.75;10.15;;;;;;;;;;5107226;28;20040;-71
2023/01/28 09:58:51;;;;;;;15.95;10.15;;;;;;;;;;5107504;28;20051;-71
2023/01/28 10:01:21;;;;;;;14.52;9.73;;;;;;;;;;5108426;28;20339;-71
2023/01/28 10:04:02;;;;;;;19.13;10.02;;;;;;;;;;5106823;28;20040;-71
2023/01/28 10:06:58;;;;;;;16.63;9.98;;;;;;;;;;5106453;28;20046;-72
2023/01/28 10:09:30;;;;;;;15.98;9.23;;;;;;;;;;5104792;28;20043;-71
2023/01/28 10:12:00;;;;;;;12.93;9.98;;;;;;;;;;5106729;28;20403;-71
2023/01/28 10:14:39;;;;;;;23.25;9.93;;;;;;;;;;5099834;28;20039;-71
2023/01/28 10:17:06;;;;;;;14.32;9.50;;;;;;;;;;5102688;28;20495;-71
2023/01/28 10:19:35;;;;;;;13.50;8.73;;;;;;;;;;5104067;28;20478;-71
2023/01/28 10:22:05;;;;;;;12.23;8.55;;;;;;;;;;5104806;28;20047;-71
2023/01/28 10:24:35;;;;;;;14.00;9.15;;;;;;;;;;5103823;28;20050;-71
2023/01/28 10:27:02;;;;;;;15.38;8.73;;;;;;;;;;5100996;28;20501;-71
2023/01/28 10:29:30;;;;;;;14.05;8.73;;;;;;;;;;5102630;28;20391;-72
2023/01/28 10:31:57;;;;;;;12.93;9.30;;;;;;;;;;5100938;28;20499;-72
2023/01/28 10:34:24;;;;;;;13.38;8.85;;;;;;;;;;5101420;28;20039;-72
2023/01/28 10:36:50;;;;;;;13.45;9.40;;;;;;;;;;5101304;28;20153;-72
2023/01/28 10:39:19;;;;;;;12.73;8.57;;;;;;;;;;5102725;28;20407;-72
2023/01/28 10:41:45;;;;;;;13.73;9.50;;;;;;;;;;5093673;28;20558;-71
2023/01/28 10:44:16;;;;;;;16.92;10.02;;;;;;;;;;5100108;28;20056;-72
2023/01/28 10:46:45;;;;;;;13.57;7.55;;;;;;;;;;5094606;28;20047;-72
2023/01/28 10:49:21;;;;;;;10.95;8.18;;;;;;;;;;5104915;28;20123;-71
2023/01/28 10:51:47;;;;;;;11.80;7.90;;;;;;;;;;5107965;28;20134;-72
2023/01/28 10:54:18;;;;;;;12.15;8.57;;;;;;;;;;5108701;28;20044;-72
2023/01/28 10:56:44;;;;;;;13.18;8.40;;;;;;;;;;5107925;28;20047;-72
2023/01/28 10:59:21;;;;;;;11.27;8.32;;;;;;;;;;5105974;28;20118;-72
2023/01/28 11:01:54;;;;;;;12.98;9.05;;;;;;;;;;5108338;28;20119;-72
2023/01/28 11:04:50;;;;;;;13.05;8.45;;;;;;;;;;5107997;28;20039;-72
2023/01/28 11:07:19;;;;;;;11.80;8.05;;;;;;;;;;5106785;28;20093;-71
2023/01/28 11:09:47;;;;;;;13.75;8.38;;;;;;;;;;5098989;28;20033;-72
2023/01/28 11:12:19;;;;;;;15.27;8.77;;;;;;;;;;5106670;28;20036;-71
2023/01/28 11:14:52;;;;;;;9.43;7.00;;;;;;;;;;5107553;28;20039;-72
2023/01/28 11:17:20;;;;;;;12.43;6.97;;;;;;;;;;5107640;28;20066;-72
2023/01/28 11:19:46;;;;;;;12.52;6.65;;;;;;;;;;5105538;28;20593;-71
2023/01/28 11:22:21;;;;;;;12.43;6.70;;;;;;;;;;5106222;28;20059;-72
2023/01/28 11:24:47;;;;;;;13.73;7.90;;;;;;;;;;5106314;28;20130;-71
2023/01/28 11:27:17;;;;;;;14.70;7.30;;;;;;;;;;5097949;28;20380;-72
2023/01/28 11:29:44;;;;;;;14.20;7.25;;;;;;;;;;5103785;28;20048;-71
2023/01/28 11:32:18;;;;;;;11.90;7.20;;;;;;;;;;5105429;28;20071;-72
2023/01/28 11:34:49;;;;;;;15.90;7.85;;;;;;;;;;5094675;28;20051;-72
2023/01/28 11:37:15;;;;;;;12.35;7.50;;;;;;;;;;5104218;28;20053;-72
2023/01/28 11:39:42;;;;;;;10.20;7.07;;;;;;;;;;5103705;28;20044;-71
2023/01/28 11:42:11;;;;;;;10.63;7.45;;;;;;;;;;5096166;28;20155;-71
2023/01/28 11:44:37;;;;;;;11.73;7.07;;;;;;;;;;5093455;28;20443;-80
2023/01/28 11:47:11;;;;;;;13.80;7.63;;;;;;;;;;5093140;28;20448;-72
2023/01/28 11:49:37;;;;;;;;;;;;;;;;;;5098452;27;21306;-71
2023/01/28 11:52:14;;;;;;;16.83;9.60;;;;;;;;;;5092911;28;19934;-71
2023/01/28 11:54:41;;;;;;;9.18;6.05;;;;;;;;;;5090397;28;20056;-71
2023/01/28 11:57:35;;;;;;;10.20;6.90;;;;;;;;;;5090427;28;20044;-71
2023/01/28 12:00:11;;;;;;;14.40;6.45;;;;;;;;;;5100548;28;20108;-71
2023/01/28 12:02:37;;;;;;;13.50;7.32;;;;;;;;;;5051715;28;20041;-71
2023/01/28 12:05:19;;;;;;;10.57;6.28;;;;;;;;;;5043080;28;20633;-71
2023/01/28 12:07:49;;;;;;;11.90;6.57;;;;;;;;;;5044395;28;20135;-71
2023/01/28 12:10:22;;;;;;;13.45;7.03;;;;;;;;;;5042096;28;20087;-71
2023/01/28 12:12:55;;;;;;;13.68;7.60;;;;;;;;;;5042709;28;20397;-72
2023/01/28 12:15:26;;;;;;;10.73;7.37;;;;;;;;;;5041111;28;21240;-72
2023/01/28 12:18:03;;;;;;;13.15;6.93;;;;;;;;;;5040444;28;20627;-71
2023/01/28 12:20:32;;;;;;;14.65;7.25;;;;;;;;;;5040444;28;20119;-71
2023/01/28 12:23:06;;;;;;;15.02;6.70;;;;;;;;;;5021885;28;20049;-71
2023/01/28 12:25:39;;;;;;;11.93;6.40;;;;;;;;;;5037004;28;20048;-72
2023/01/28 12:28:06;;;;;;;10.95;7.18;;;;;;;;;;5038099;28;20045;-70
2023/01/28 12:30:51;;;;;;;11.35;6.65;;;;;;;;;;5038361;28;20053;-71
2023/01/28 12:33:37;;;;;;;13.40;7.03;;;;;;;;;;5039199;28;20049;-70
2023/01/28 12:36:06;;;;;;;9.93;7.20;;;;;;;;;;5042530;28;20133;-70
2023/01/28 12:38:44;;;;;;;10.82;6.78;;;;;;;;;;5040419;28;20198;-70
2023/01/28 12:41:12;;;;;;;10.63;7.55;;;;;;;;;;5041705;28;21405;-71
2023/01/28 12:43:52;;;;;;;11.00;7.05;;;;;;;;;;5042574;28;20353;-70
2023/01/28 12:46:24;;;;;;;11.35;6.35;;;;;;;;;;5040766;28;20049;-70
2023/01/28 12:48:53;;;;;;;9.98;6.22;;;;;;;;;;5040863;28;20423;-70
2023/01/28 12:51:23;;;;;;;11.32;7.20;;;;;;;;;;5038557;28;20652;-71
2023/01/28 12:53:52;;;;;;;10.15;6.28;;;;;;;;;;5043346;28;20037;-70
2023/01/28 12:56:22;;;;;;;11.32;5.80;;;;;;;;;;5043918;28;20063;-70
2023/01/28 12:58:49;;;;;;;12.20;6.13;;;;;;;;;;5040672;28;20057;-70
2023/01/28 13:01:18;;;;;;;12.07;5.85;;;;;;;;;;5042479;28;20045;-70
2023/01/28 13:03:47;;;;;;;11.23;7.10;;;;;;;;;;5040787;28;20044;-70
2023/01/28 13:06:19;;;;;;;8.65;5.72;;;;;;;;;;5042370;28;20056;-70
2023/01/28 13:08:46;;;;;;;13.48;6.43;;;;;;;;;;5045361;28;20116;-70
2023/01/28 13:11:15;;;;;;;8.25;4.82;;;;;;;;;;5045697;28;20068;-70
2023/01/28 13:13:42;;;;;;;8.63;4.65;;;;;;;;;;5044659;28;20086;-70
2023/01/28 13:16:09;;;;;;;7.55;4.95;;;;;;;;;;5045127;28;20378;-70
2023/01/28 13:18:36;;;;;;;10.23;4.80;;;;;;;;;;5045182;28;20485;-70
2023/01/28 13:21:04;;;;;;;8.75;5.15;;;;;;;;;;5044264;28;20068;-70
2023/01/28 13:23:31;;;;;;;8.85;4.90;;;;;;;;;;5045224;28;20483;-70
2023/01/28 13:26:07;;;;;;;7.88;4.43;;;;;;;;;;5044003;28;20167;-70
2023/01/28 13:28:34;;;;;;;7.10;4.13;;;;;;;;;;5043362;28;20408;-70
2023/01/28 13:31:02;;;;;;;8.70;3.90;;;;;;;;;;5045374;28;20053;-70
2023/01/28 13:33:30;;;;;;;10.40;4.75;;;;;;;;;;5044137;28;20187;-70
2023/01/28 13:35:57;;;;;;;10.70;5.32;;;;;;;;;;5044547;28;20179;-70
2023/01/28 13:38:24;;;;;;;11.40;5.68;;;;;;;;;;5043422;28;20337;-70
2023/01/28 13:40:54;;;;;;;9.38;4.80;;;;;;;;;;5041984;28;20084;-70
2023/01/28 13:43:26;;;;;;;10.57;4.70;;;;;;;;;;5041232;28;20517;-70
2023/01/28 13:45:56;;;;;;;7.95;4.40;;;;;;;;;;5039652;28;20084;-71
2023/01/28 13:48:29;;;;;;;6.82;3.80;;;;;;;;;;5039171;28;20094;-70
2023/01/28 13:50:55;;;;;;;10.20;4.28;;;;;;;;;;5041267;28;20041;-70
2023/01/28 13:53:35;;;;;;;7.70;4.85;;;;;;;;;;5042364;28;20124;-70
2023/01/28 13:56:05;;;;;;;9.30;4.25;;;;;;;;;;5037361;28;20481;-70
2023/01/28 13:58:51;;;;;;;10.18;4.00;;;;;;;;;;5056947;28;20059;-70
2023/01/28 14:01:44;;;;;;;12.02;4.03;;;;;;;;;;5037977;28;20049;-70
2023/01/28 14:04:21;;;;;;;9.35;4.18;;;;;;;;;;5038871;28;20045;-70
2023/01/28 14:06:47;;;;;;;9.55;4.53;;;;;;;;;;5040986;28;20041;-71
2023/01/28 14:09:23;;;;;;;8.55;4.07;;;;;;;;;;5041267;28;20041;-71
2023/01/28 14:11:50;;;;;;;8.32;3.92;;;;;;;;;;5043892;28;20068;-72
2023/01/28 14:14:17;;;;;;;8.88;4.28;;;;;;;;;;5038520;28;20148;-71
2023/01/28 14:16:55;;;;;;;9.05;4.00;;;;;;;;;;5039372;28;20129;-71
2023/01/28 14:19:26;;;;;;;9.32;5.28;;;;;;;;;;5038179;28;20044;-72
2023/01/28 14:21:53;;;;;;;11.52;4.30;;;;;;;;;;5038922;28;20473;-73
2023/01/28 14:24:19;;;;;;;12.90;4.55;;;;;;;;;;5038385;28;20043;-72
2023/01/28 14:26:54;;;;;;;9.38;4.13;;;;;;;;;;5040988;28;20136;-72
2023/01/28 14:29:31;;;;;;;7.68;3.58;;;;;;;;;;5038848;28;20431;-72
2023/01/28 14:31:57;;;;;;;8.23;3.30;;;;;;;;;;5038762;28;20485;-71
2023/01/28 14:34:27;;;;;;;8.55;4.28;;;;;;;;;;5040915;28;20338;-72
2023/01/28 14:36:55;;;;;;;6.57;3.83;;;;;;;;;;5039962;28;20048;-72
2023/01/28 14:39:24;;;;;;;7.70;2.92;;;;;;;;;;5040528;28;20041;-71
2023/01/28 14:41:51;;;;;;;11.88;4.22;;;;;;;;;;5042022;28;20048;-72
2023/01/28 14:44:27;;;;;;;7.88;2.67;;;;;;;;;;5043240;28;20488;-71
2023/01/28 14:46:59;;;;;;;8.43;3.08;;;;;;;;;;5042190;28;20546;-71
2023/01/28 14:49:29;;;;;;;6.43;2.78;;;;;;;;;;5054831;28;20115;-71
2023/01/28 14:52:08;;;;;;;8.65;2.70;;;;;;;;;;5027188;28;20057;-71
2023/01/28 14:54:46;;;;;;;5.45;2.67;;;;;;;;;;5020560;28;20127;-70
2023/01/28 14:57:16;;;;;;;12.10;3.70;;;;;;;;;;5017609;28;20037;-70
2023/01/28 14:59:45;;;;;;;7.38;3.42;;;;;;;;;;5050895;28;20128;-69
2023/01/28 15:02:20;;;;;;;6.60;3.00;;;;;;;;;;5050457;28;20456;-69
2023/01/28 15:04:46;;;;;;;9.05;3.50;;;;;;;;;;5047781;28;20128;-69
2023/01/28 15:07:20;;;;;;;8.45;3.33;;;;;;;;;;5043934;28;20113;-69
2023/01/28 15:09:47;;;;;;;8.75;3.10;;;;;;;;;;5026547;28;20064;-69
2023/01/28 15:12:13;;;;;;;14.20;3.58;;;;;;;;;;5045174;28;20049;-69